ADDS METAR Data INFO
IDs: Format: Raw Decoded Include TAF

Data at: 0502 UTC 21 Feb 2018

KEST 201452Z AUTO 32016KT 10SM FEW011 OVC032 M11/M13 A2993 RMK AO2 SLP160 T11061128 53022
KEST 201413Z AUTO 30015KT 10SM SCT011 OVC033 M11/M12 A2994 RMK AO2 T11061122
KEST 201402Z AUTO 30014KT 10SM BKN011 OVC032 M11/M12 A2993 RMK AO2 PRESRR T11061122
KEST 201352Z AUTO 32013KT 10SM SCT011 OVC032 M10/M12 A2990 RMK AO2 PRESRR SLP148 T11001117
KEST 201252Z AUTO 31012KT 10SM OVC033 M10/M12 A2990 RMK AO2 SLP148 T11001117
KEST 201223Z AUTO 33011KT 10SM SCT014 OVC032 M10/M12 A2987 RMK AO2 T11001117
KEST 201152Z AUTO 33013KT 10SM BKN010 OVC016 M10/M12 A2986 RMK AO2 SLP136 60000 I6009 T11001117 11078 21100 53010
KEST 201125Z AUTO 33014KT 10SM OVC010 M10/M11 A2985 RMK AO2 T11001111
KEST 201052Z AUTO 34015KT 8SM OVC009 M09/M11 A2985 RMK AO2 SLP131 T10941106
KEST 200952Z AUTO 32015KT 7SM OVC009 M09/M10 A2984 RMK AO2 SLP128 I1000 T10891100
KEST 200906Z AUTO 34013KT 9SM OVC006 M08/M09 A2984 RMK AO2 CIG 004V007 T10831094
KEST 200852Z AUTO 34011KT 9SM OVC004 M08/M09 A2983 RMK AO2 CIG 003V007 SLP124 60000 I3009 T10831089 53001
KEST 200840Z AUTO 33013KT 7SM OVC004 M08/M09 A2984 RMK AO2 T10831089
KEST 200826Z AUTO 34011KT 6SM BR OVC005 M08/M09 A2984 RMK AO2 CIG 003V008 T10831089
KEST 200808Z AUTO 34009KT 10SM BKN007 OVC010 M08/M09 A2984 RMK AO2 CIG 005V009 T10781094
KEST 200752Z AUTO 33007KT 8SM OVC011 M08/M09 A2983 RMK AO2 UPB0659E09B21E44SNE0659B09E21 CIG 008V012 PRESRR SLP123 P0000 T10781089
KEST 200743Z AUTO 01006KT 3SM UP BR OVC011 M08/M09 A2981 RMK AO2 UPB0659E09B21SNE0659B09E21 PRESRR P0000 T10781089
KEST 200734Z AUTO 01010KT 1 1/4SM UP BR FEW006 OVC011 M08/M09 A2978 RMK AO2 UPB0659E09B21SNE0659B09E21 PRESRR P0000 T10831089
KEST 200726Z AUTO 01012KT 3/4SM UP BR SCT006 OVC011 M08/M09 A2976 RMK AO2 UPB0659E09B21SNE0659B09E21 P0000 T10831089
KEST 200722Z AUTO 01012KT 3/4SM UP BR BKN004 OVC009 M08/M09 A2975 RMK AO2 UPB0659E09B21SNE0659B09E21 P0000 T10831089
KEST 200714Z AUTO 01015KT 1 1/4SM -SN BR BKN004 OVC008 M08/M09 A2974 RMK AO2 UPB0659E09SNE0659B09 PRESFR P0000 T10831089
KEST 200706Z AUTO 36015KT 2SM UP BR OVC004 M08/M09 A2977 RMK AO2 UPB0659SNE0659 P0000 T10831089
KEST 200652Z AUTO 36014KT 1 1/2SM -SN BR OVC004 M08/M09 A2978 RMK AO2 UPB30E39SNB39 SLP108 P0000 I1009 T10831089
KEST 200552Z AUTO 35013KT 1 3/4SM BR OVC003 M08/M08 A2983 RMK AO2 SLP124 I6003 T10781083 11072 21083 410501083 58006
KEST 200452Z AUTO 01011KT 1 3/4SM BR OVC003 M08/M08 A2984 RMK AO2 SLP127 T10781083
KEST 200352Z AUTO 36013KT 2SM BR OVC003 M08/M09 A2984 RMK AO2 SLP129 I1001 T10831089
KEST 200252Z AUTO 36013KT 2 1/2SM BR OVC004 M08/M09 A2985 RMK AO2 SLP131 I3002 T10781089 53008
KEST 200243Z AUTO 36014KT 2 1/2SM BR OVC004 M08/M09 A2984 RMK AO2 T10781089
KEST 200221Z AUTO 01016KT 3SM BR OVC004 M08/M09 A2982 RMK AO2 T10831089
KEST 200152Z AUTO 36016KT 3SM BR OVC005 M08/M08 A2984 RMK AO2 SLP125 I1001 T10781083
KEST 200119Z AUTO 36016KT 3SM BR OVC005 M08/M08 A2984 RMK AO2 I1000 T10781083
KEST 200052Z AUTO 36019KT 2 1/2SM BR OVC005 M08/M08 A2981 RMK AO2 SLP118 I1001 T10781083
KEST 200025Z AUTO 36019KT 2 1/2SM BR OVC005 M07/M08 A2982 RMK AO2 I1001 T10721083
KEST 200002Z AUTO 36015KT 2 1/2SM BR OVC006 M07/M08 A2982 RMK AO2 T10721078
KEST 192352Z AUTO 36016KT 1 1/2SM BR OVC006 M07/M08 A2982 RMK AO2 SLP120 60000 I1002 I6017 T10721078 11067 21078 51019
KEST 192324Z AUTO 36016KT 1 1/2SM BR OVC006 M07/M08 A2982 RMK AO2 I1001 T10671078
KEST 192252Z AUTO 01017KT 1 1/4SM BR OVC005 M07/M08 A2981 RMK AO2 SLP114 I1005 T10721078
KEST 192227Z AUTO 01016KT 1 1/4SM BR OVC005 M07/M08 A2980 RMK AO2 I1004 T10721078
KEST 192214Z AUTO 01018KT 1 1/4SM BR OVC006 M07/M08 A2979 RMK AO2 I1004 T10721078
KEST 192152Z AUTO 1 1/2SM BR OVC005 M07/M08 A2980 RMK AO2 PK WND 33027/2109 SLP111 I1001 T10721078
KEST 192100Z AUTO 36018KT 1 1/4SM BR OVC005 M07/M08 A2977 RMK AO2 T10721083
KEST 192052Z AUTO 01020KT 1SM BR OVC005 M07/M08 A2977 RMK AO2 FZRAB12E29 SLP100 P0000 60000 I1004 I3009 T10721078 56008
KEST 192035Z AUTO 1SM BR OVC005 M07/M08 A2977 RMK AO2 FZRAB12E29 P0000 I1003 T10721078
KEST 192024Z AUTO 36017KT 1SM -FZRA BR OVC005 M07/M08 A2977 RMK AO2 FZRAB12 P0000 I1002 T10721078
KEST 192017Z AUTO 1 1/4SM -FZRA BR OVC005 M07/M08 A2977 RMK AO2 FZRAB12 P0000 I1002 T10721078
KEST 191952Z AUTO 01018KT 1 1/4SM BR OVC006 M07/M08 A2977 RMK AO2 PK WND 33028/1918 SLP102 I1004 T10721078
KEST 191852Z AUTO 1 1/2SM BR OVC006 M07/M08 A2977 RMK AO2 SLP102 I1001 T10721083 $
KEST 191752Z AUTO 1 3/4SM BR OVC006 M08/M09 A2979 RMK AO2 UPB1654E1655FZRAB08E44SNE1654B1655E1656 SLP109 P0000 60000 I1002 I6003 T10781089 11067 21078 55002
KEST 191750Z AUTO 1 1/2SM BR OVC006 M08/M09 A2979 RMK AO2 UPB1654E1655FZRAB08E44SNE1654B1655E1656 P0000 I1002
KEST 191714Z AUTO 1 1/2SM -FZRA BR OVC006 M08/M09 A2979 RMK AO2 UPB1654E1655FZRAB08SNE1654B1655E1656 P0000 I1000 T10781089